^^
Grace C. Lehan Memorial Weather Station Historical Data
Daily Summary for November 28, 2021 Units:  English    Metric   Both
Daily Weekly Monthly Yearly
  High: Low: Average:
Temperature: 35.5 °F 30 °F 33.5 °F
Dew Point: 32.3 °F 20.1 °F 28 °F
Humidity: 90% 65.8% 80%
Wind Speed: 1.5mph 0mph 0.1mph
Wind Gust: 10mph - -
Wind- - WSW
Pressure: 29.89 in 29.78 in -
Precipitation: 0.01 in    
 
 
Tabular Data for November 28, 2021
Time Temperature Dew Point Pressure Wind Wind Speed Wind Gust Humidity Rainfall Rate (Hourly) solar
00:04 30.1 °F 20.1 °F 29.87 in West 0.1 mph 1 mph 66% 0.00 in 0 W/m2
00:09 30.1 °F 20.1 °F 29.87 in West 0.1 mph 2 mph 66% 0.00 in 0 W/m2
00:14 30.1 °F 20.5 °F 29.87 in West 0.4 mph 5 mph 67% 0.00 in 0 W/m2
00:19 30 °F 20.4 °F 29.87 in West 0.5 mph 5 mph 67% 0.00 in 0 W/m2
00:24 30.1 °F 20.5 °F 29.86 in West 0.2 mph 5 mph 67% 0.00 in 0 W/m2
00:29 30.1 °F 20.5 °F 29.87 in West 0.1 mph 5 mph 67% 0.00 in 0 W/m2
00:34 30.2 °F 20.6 °F 29.87 in West 0.3 mph 5 mph 67% 0.00 in 0 W/m2
00:39 30.4 °F 20.7 °F 29.87 in West 0.3 mph 3 mph 67% 0.00 in 0 W/m2
00:44 30.5 °F 20.8 °F 29.87 in Calm   3 mph 67% 0.00 in 0 W/m2
00:49 30.6 °F 21 °F 29.87 in West 0.1 mph 3 mph 67% 0.00 in 0 W/m2
00:54 30.7 °F 21.1 °F 29.87 in West 0.5 mph 4 mph 67% 0.00 in 0 W/m2
00:59 30.8 °F 21 °F 29.87 in West 0.6 mph 6 mph 66.4% 0.00 in 0 W/m2
01:00 30.9 °F 20.9 °F 29.87 in Calm   6 mph 66% 0.00 in 0 W/m2
01:30 31 °F 21 °F 29.87 in WSW 1 mph 5 mph 66% 0.00 in 0 W/m2
02:00 31.1 °F 21.1 °F 29.87 in Calm   6 mph 66% 0.00 in 0 W/m2
02:30 31.2 °F 21.2 °F 29.88 in Calm   6 mph 66% 0.00 in 0 W/m2
03:00 30.8 °F 20.8 °F 29.87 in WSW 1 mph 6 mph 66% 0.00 in 0 W/m2
03:30 31 °F 21.3 °F 29.86 in WSW 1 mph 9 mph 67% 0.00 in 0 W/m2
04:04 31.5 °F 21.9 °F 29.87 in WSW 1.4 mph 9 mph 67% 0.00 in 0 W/m2
04:09 31.6 °F 21.9 °F 29.87 in WSW 1.5 mph 5 mph 66.8% 0.00 in 0 W/m2
04:14 31.7 °F 21.7 °F 29.87 in WSW 1.3 mph 5 mph 66% 0.00 in 0 W/m2
04:19 31.8 °F 21.7 °F 29.88 in WSW 1.4 mph 7 mph 65.8% 0.00 in 0 W/m2
04:24 31.9 °F 21.9 °F 29.88 in WSW 0.8 mph 7 mph 66% 0.00 in 0 W/m2
04:29 32 °F 21.9 °F 29.88 in WSW 0.5 mph 7 mph 66% 0.00 in 0 W/m2
04:34 32 °F 21.9 °F 29.88 in WSW 0.1 mph 7 mph 65.8% 0.00 in 0 W/m2
04:39 32.1 °F 22 °F 29.87 in WSW 0.4 mph 3 mph 66% 0.00 in 0 W/m2
04:44 32.1 °F 22 °F 29.87 in Calm   3 mph 66% 0.00 in 0 W/m2
04:49 32.1 °F 22 °F 29.87 in WSW 0.2 mph 3 mph 66% 0.00 in 0 W/m2
04:54 32.1 °F 22 °F 29.87 in WSW 0.3 mph 3 mph 66% 0.00 in 0 W/m2
04:59 32.2 °F 22.1 °F 29.87 in WSW 1 mph 4 mph 66% 0.00 in 0 W/m2
05:04 32.2 °F 22.1 °F 29.87 in WSW 0.9 mph 5 mph 66% 0.00 in 0 W/m2
05:09 32.3 °F 22.2 °F 29.87 in WSW 0.5 mph 5 mph 66% 0.00 in 0 W/m2
05:14 32.3 °F 22.2 °F 29.87 in West 1.1 mph 10 mph 66% 0.00 in 0 W/m2
05:19 32.3 °F 22.3 °F 29.87 in West 0.3 mph 10 mph 66% 0.00 in 0 W/m2
05:24 32.4 °F 22.3 °F 29.87 in WSW 0.4 mph 10 mph 66% 0.00 in 0 W/m2
05:29 32.4 °F 22.3 °F 29.87 in WSW 0.5 mph 10 mph 66% 0.00 in 0 W/m2
05:34 32.4 °F 22.3 °F 29.86 in WSW 0.5 mph 10 mph 66% 0.00 in 0 W/m2
05:39 32.4 °F 22.4 °F 29.86 in WSW 0.9 mph 6 mph 66% 0.00 in 0 W/m2
05:44 32.5 °F 22.4 °F 29.86 in WSW 0.6 mph 6 mph 66% 0.00 in 0 W/m2
05:49 32.5 °F 22.6 °F 29.86 in WSW 0.7 mph 6 mph 66.6% 0.00 in 0 W/m2
05:54 32.5 °F 22.5 °F 29.86 in SW 0.7 mph 6 mph 66.3% 0.00 in 0 W/m2
05:59 32.6 °F 22.7 °F 29.86 in SW 0.4 mph 6 mph 66.5% 0.00 in 0 W/m2
06:04 32.6 °F 22.9 °F 29.86 in SW 0.7 mph 7 mph 67.1% 0.00 in 0 W/m2
06:09 32.6 °F 23.2 °F 29.86 in SW 1.4 mph 7 mph 68% 0.00 in 0 W/m2
06:14 32.6 °F 23.5 °F 29.86 in SW 0.3 mph 7 mph 68.6% 0.00 in 0 W/m2
06:19 32.6 °F 23.9 °F 29.86 in SW 0.3 mph 7 mph 69.9% 0.00 in 0 W/m2
06:24 32.6 °F 24 °F 29.87 in SW 0.4 mph 7 mph 70.4% 0.00 in 0 W/m2
06:29 32.5 °F 24.2 °F 29.86 in SW 0.2 mph 7 mph 71% 0.00 in 0 W/m2
06:34 32.4 °F 24.1 °F 29.86 in Calm   7 mph 71.2% 0.00 in 0 W/m2
06:39 32.4 °F 24.2 °F 29.86 in SW 0.1 mph 2 mph 71.4% 0.00 in 0 W/m2
06:44 32.4 °F 24.4 °F 29.87 in Calm   2 mph 72% 0.00 in 0 W/m2
06:49 32.3 °F 24.3 °F 29.87 in Calm   2 mph 72% 0.00 in 0 W/m2
06:54 32.3 °F 24.3 °F 29.87 in Calm   2 mph 72% 0.00 in 0 W/m2
06:59 32.3 °F 24.3 °F 29.87 in SW 0.4 mph 6 mph 72% 0.00 in 0 W/m2
07:04 32.4 °F 24.4 °F 29.87 in SW 0.2 mph 6 mph 72% 0.00 in 0 W/m2
07:09 32.4 °F 24.4 °F 29.87 in Calm   2 mph 72% 0.00 in 5 W/m2
07:14 32.4 °F 24.6 °F 29.88 in Calm   2 mph 72.4% 0.00 in 11 W/m2
07:19 32.5 °F 24.6 °F 29.88 in SW 0.1 mph 2 mph 72.2% 0.00 in 18 W/m2
07:24 32.5 °F 24.5 °F 29.87 in SW 0.5 mph 3 mph 72.2% 0.00 in 23 W/m2
07:29 32.6 °F 24.7 °F 29.88 in Calm   3 mph 72.4% 0.00 in 30 W/m2
07:34 32.6 °F 24.8 °F 29.88 in Calm   3 mph 72.7% 0.00 in 35 W/m2
07:39 32.6 °F 25 °F 29.88 in Calm     73.1% 0.00 in 39 W/m2
07:44 32.7 °F 25.3 °F 29.88 in SW 0.4 mph 3 mph 74% 0.00 in 46 W/m2
07:49 32.8 °F 25.4 °F 29.88 in Calm   3 mph 74% 0.00 in 44 W/m2
07:54 32.8 °F 25.4 °F 29.88 in Calm   3 mph 74% 0.00 in 46 W/m2
07:59 32.9 °F 25.6 °F 29.88 in Calm   3 mph 74.2% 0.00 in 88 W/m2
08:04 33 °F 26 °F 29.88 in Calm     75% 0.00 in 90 W/m2
08:09 33.1 °F 26.1 °F 29.88 in Calm     75% 0.00 in 90 W/m2
08:14 33.2 °F 26.2 °F 29.88 in Calm     75% 0.00 in 95 W/m2
08:19 33.3 °F 26.5 °F 29.88 in Calm     75.8% 0.00 in 86 W/m2
08:24 33.4 °F 26.5 °F 29.88 in SW 0.2 mph 4 mph 75.7% 0.00 in 86 W/m2
08:29 33.4 °F 26.4 °F 29.88 in Calm   4 mph 75.1% 0.00 in 83 W/m2
08:34 33.4 °F 26.6 °F 29.88 in Calm   4 mph 75.8% 0.00 in 83 W/m2
08:39 33.5 °F 26.4 °F 29.88 in Calm     75% 0.00 in 90 W/m2
08:44 33.5 °F 26.8 °F 29.88 in Calm     76% 0.00 in 104 W/m2
08:49 33.6 °F 26.9 °F 29.88 in Calm     76% 0.00 in 113 W/m2
08:54 33.7 °F 27 °F 29.88 in Calm     76% 0.00 in 116 W/m2
08:59 33.8 °F 27 °F 29.88 in Calm     76% 0.00 in 114 W/m2
09:04 33.8 °F 27.4 °F 29.89 in Calm     77.2% 0.00 in 128 W/m2
09:09 33.9 °F 27.1 °F 29.89 in Calm     76% 0.00 in 135 W/m2
09:14 33.9 °F 27.2 °F 29.89 in Calm     76% 0.00 in 134 W/m2
09:19 34 °F 27.2 °F 29.89 in Calm     76% 0.00 in 134 W/m2
09:24 34.1 °F 27.3 °F 29.89 in Calm     76% 0.00 in 134 W/m2
09:29 34.1 °F 27.4 °F 29.89 in Calm     76% 0.00 in 111 W/m2
09:34 34.2 °F 27.5 °F 29.89 in Calm     76% 0.00 in 93 W/m2
09:39 34.3 °F 27.5 °F 29.89 in SW 0.1 mph 3 mph 76% 0.00 in 74 W/m2
09:44 34.3 °F 27.6 °F 29.89 in Calm   3 mph 76% 0.00 in 63 W/m2
09:49 34.3 °F 27.8 °F 29.89 in Calm   3 mph 76.7% 0.00 in 65 W/m2
09:54 34.2 °F 27.9 °F 29.89 in Calm   3 mph 77.3% 0.00 in 65 W/m2
09:59 34.2 °F 28.1 °F 29.89 in Calm   3 mph 78.1% 0.00 in 74 W/m2
10:04 34.2 °F 28.4 °F 29.89 in Calm   3 mph 79% 0.00 in 74 W/m2
10:09 34.1 °F 28.2 °F 29.89 in Calm     78.8% 0.00 in 65 W/m2
10:14 34.1 °F 28.3 °F 29.89 in Calm     79% 0.00 in 56 W/m2
10:19 34.1 °F 28.5 °F 29.89 in Calm     79.6% 0.00 in 54 W/m2
10:24 34.1 °F 28.5 °F 29.88 in Calm     79.6% 0.00 in 56 W/m2
10:29 34.1 °F 28.5 °F 29.88 in Calm     80% 0.00 in 62 W/m2
10:34 34 °F 28.4 °F 29.88 in Calm     80% 0.00 in 81 W/m2
10:39 33.9 °F 28.7 °F 29.88 in SW 0.4 mph 4 mph 80.8% 0.00 in 88 W/m2
10:44 34 °F 28.8 °F 29.88 in Calm   4 mph 81% 0.00 in 104 W/m2
10:49 34.1 °F 28.9 °F 29.88 in Calm   4 mph 81% 0.00 in 116 W/m2
10:54 34.1 °F 28.9 °F 29.88 in SW 0.6 mph 4 mph 81% 0.00 in 120 W/m2
10:59 34.1 °F 29.1 °F 29.88 in Calm   4 mph 81.7% 0.00 in 123 W/m2
11:04 34.1 °F 29.3 °F 29.87 in Calm   4 mph 82.5% 0.00 in 104 W/m2
11:09 34 °F 29.4 °F 29.87 in Calm   1 mph 83.1% 0.00 in 81 W/m2
11:14 33.9 °F 29.6 °F 29.87 in Calm   1 mph 84.1% 0.00 in 69 W/m2
11:19 33.9 °F 29.9 °F 29.86 in Calm   1 mph 85% 0.00 in 102 W/m2
11:24 33.9 °F 30 °F 29.86 in Calm   1 mph 85.4% 0.00 in 104 W/m2
11:29 33.9 °F 30.2 °F 29.86 in Calm   1 mph 86% 0.00 in 88 W/m2
11:34 33.9 °F 30.1 °F 29.86 in Calm   1 mph 86% 0.00 in 77 W/m2
11:39 33.7 °F 30.6 °F 29.86 in Calm     88% 0.00 in 69 W/m2
11:44 33.7 °F 30.2 °F 29.86 in Calm     86.8% 0.00 in 60 W/m2
11:49 33.6 °F 30.2 °F 29.85 in Calm     87% 0.00 in 67 W/m2
11:54 33.5 °F 30.1 °F 29.85 in Calm     87% 0.00 in 69 W/m2
11:59 33.4 °F 30.2 °F 29.85 in Calm     87.7% 0.00 in 74 W/m2
12:00 33.4 °F 30.2 °F 29.85 in Calm     88% 0.00 in 65 W/m2
12:09 33.3 °F 30.2 °F 29.85 in Calm     88% 0.00 in 74 W/m2
12:14 33.3 °F 30.1 °F 29.85 in Calm     88% 0.00 in 51 W/m2
12:19 33.2 °F 30 °F 29.84 in Calm     88% 0.00 in 53 W/m2
12:24 33.1 °F 29.9 °F 29.84 in Calm     88% 0.00 in 53 W/m2
12:29 33.1 °F 30 °F 29.84 in Calm     88.2% 0.00 in 53 W/m2
12:34 33.1 °F 30.1 °F 29.84 in Calm     88.6% 0.00 in 51 W/m2
12:39 33.2 °F 30.3 °F 29.84 in Calm     89% 0.00 in 39 W/m2
12:44 33.2 °F 30.3 °F 29.84 in Calm     89% 0.00 in 39 W/m2
12:49 33.3 °F 30.4 °F 29.84 in Calm     89% 0.00 in 46 W/m2
12:54 33.3 °F 30.4 °F 29.84 in Calm     89% 0.00 in 46 W/m2
12:59 33.3 °F 30.4 °F 29.84 in Calm     89% 0.00 in 54 W/m2
13:04 33.3 °F 30.4 °F 29.84 in Calm     89% 0.00 in 54 W/m2
13:09 33.5 °F 30.5 °F 29.83 in Calm     88.8% 0.00 in 63 W/m2
13:14 33.5 °F 30.3 °F 29.83 in Calm     88% 0.00 in 63 W/m2
13:19 33.5 °F 30.4 °F 29.83 in Calm     88% 0.00 in 60 W/m2
13:24 33.5 °F 30.2 °F 29.83 in Calm     87.5% 0.00 in 54 W/m2
13:29 33.5 °F 30.1 °F 29.83 in Calm     87% 0.00 in 62 W/m2
13:34 33.6 °F 30.2 °F 29.83 in Calm     87% 0.00 in 62 W/m2
13:39 33.7 °F 30.2 °F 29.83 in Calm     87% 0.01 in 56 W/m2
13:44 33.8 °F 30.5 °F 29.83 in Calm     87.5% 0.01 in 51 W/m2
13:49 33.9 °F 30.5 °F 29.83 in Calm     87% 0.01 in 49 W/m2
13:54 34.1 °F 30.6 °F 29.83 in Calm     87% 0.01 in 44 W/m2
13:59 34.2 °F 30.7 °F 29.82 in Calm     87% 0.01 in 42 W/m2
14:04 34.3 °F 30.8 °F 29.82 in Calm     87% 0.01 in 42 W/m2
14:09 34.3 °F 30.8 °F 29.82 in Calm     86.7% 0.01 in 51 W/m2
14:14 34.3 °F 30.6 °F 29.82 in Calm     86% 0.01 in 51 W/m2
14:19 34.3 °F 30.6 °F 29.82 in Calm     86% 0.01 in 46 W/m2
14:24 34.4 °F 30.6 °F 29.81 in Calm     86% 0.01 in 42 W/m2
14:29 34.4 °F 30.7 °F 29.81 in Calm     86% 0.01 in 30 W/m2
14:34 34.5 °F 30.7 °F 29.81 in Calm     86% 0.01 in 28 W/m2
14:39 34.5 °F 30.8 °F 29.81 in Calm     86% 0.01 in 23 W/m2
14:44 34.5 °F 30.7 °F 29.81 in Calm     86% 0.01 in 21 W/m2
14:49 34.4 °F 30.4 °F 29.81 in Calm     85.1% 0.01 in 23 W/m2
14:54 34.3 °F 30.3 °F 29.81 in Calm     85% 0.01 in 19 W/m2
14:59 34.3 °F 30.4 °F 29.81 in Calm     85.5% 0.01 in 14 W/m2
15:04 34.4 °F 30.6 °F 29.80 in Calm     86% 0.01 in 19 W/m2
15:09 34.4 °F 30.7 °F 29.80 in Calm     86% 0.00 in 23 W/m2
15:14 34.4 °F 30.7 °F 29.80 in Calm     86% 0.00 in 23 W/m2
15:19 34.5 °F 30.8 °F 29.80 in Calm     86% 0.00 in 16 W/m2
15:24 34.6 °F 30.8 °F 29.80 in Calm     86% 0.00 in 14 W/m2
15:29 34.6 °F 30.9 °F 29.80 in Calm     86% 0.00 in 14 W/m2
15:34 34.6 °F 30.8 °F 29.80 in Calm     85.8% 0.00 in 11 W/m2
15:39 34.6 °F 30.6 °F 29.80 in Calm     85% 0.00 in 9 W/m2
15:44 34.6 °F 30.6 °F 29.80 in Calm     85% 0.00 in 5 W/m2
15:49 34.6 °F 30.6 °F 29.81 in Calm     85% 0.00 in 5 W/m2
15:54 34.6 °F 30.8 °F 29.81 in Calm     85.7% 0.00 in 5 W/m2
15:59 34.7 °F 30.8 °F 29.81 in Calm     85.6% 0.00 in 5 W/m2
16:00 34.7 °F 31 °F 29.80 in Calm     86% 0.00 in 0 W/m2
16:09 34.7 °F 30.8 °F 29.80 in Calm     85.4% 0.00 in 0 W/m2
16:14 34.7 °F 30.6 °F 29.80 in Calm     85% 0.00 in 0 W/m2
16:19 34.7 °F 30.6 °F 29.80 in Calm     85% 0.00 in 0 W/m2
16:24 34.6 °F 30.7 °F 29.80 in Calm     85.6% 0.00 in 0 W/m2
16:29 34.6 °F 30.9 °F 29.81 in Calm     85.9% 0.00 in 0 W/m2
16:34 34.6 °F 30.9 °F 29.81 in Calm     86% 0.00 in 0 W/m2
16:39 34.7 °F 30.9 °F 29.81 in Calm     86% 0.00 in 0 W/m2
16:44 34.7 °F 31 °F 29.81 in Calm     86% 0.00 in 0 W/m2
16:49 34.7 °F 31 °F 29.81 in Calm     86% 0.00 in 0 W/m2
16:54 34.7 °F 30.9 °F 29.81 in Calm     86% 0.00 in 0 W/m2
16:59 34.6 °F 30.9 °F 29.81 in Calm     86% 0.00 in 0 W/m2
17:04 34.6 °F 30.9 °F 29.81 in Calm     86% 0.00 in 0 W/m2
17:09 34.6 °F 31.1 °F 29.81 in Calm     87% 0.00 in 0 W/m2
17:14 34.5 °F 31.6 °F 29.81 in Calm     89% 0.00 in 0 W/m2
17:19 34.5 °F 30.8 °F 29.81 in Calm     86% 0.00 in 0 W/m2
17:24 34.5 °F 30.8 °F 29.82 in Calm     86.3% 0.00 in 0 W/m2
17:29 34.5 °F 31 °F 29.82 in Calm     87% 0.00 in 0 W/m2
17:34 34.5 °F 31 °F 29.82 in Calm     87% 0.00 in 0 W/m2
17:39 34.5 °F 31.1 °F 29.83 in Calm     87% 0.00 in 0 W/m2
17:44 34.5 °F 31.1 °F 29.83 in Calm     87% 0.00 in 0 W/m2
17:49 34.6 °F 31.1 °F 29.82 in Calm     87% 0.00 in 0 W/m2
18:00 34.6 °F 31.1 °F 29.83 in Calm     87% 0.00 in 0 W/m2
18:30 34.6 °F 31.1 °F 29.83 in Calm     87% 0.00 in 0 W/m2
19:00 34.6 °F 31.1 °F 29.83 in Calm     87% 0.00 in 0 W/m2
19:30 34.6 °F 31.1 °F 29.83 in Calm     87% 0.00 in 0 W/m2
20:04 34.5 °F 31.3 °F 29.83 in Calm     88% 0.00 in 0 W/m2
20:09 34.7 °F 31.5 °F 29.83 in Calm     88% 0.00 in 0 W/m2
20:14 34.9 °F 32 °F 29.83 in Calm     89% 0.00 in 0 W/m2
20:19 35 °F 32.1 °F 29.82 in Calm     89% 0.00 in 0 W/m2
20:24 35.2 °F 32.3 °F 29.82 in Calm     89% 0.00 in 0 W/m2
20:29 35.2 °F 32.3 °F 29.82 in Calm     89% 0.00 in 0 W/m2
20:34 35.3 °F 32.3 °F 29.83 in Calm     89% 0.00 in 0 W/m2
20:39 35.2 °F 32.1 °F 29.83 in Calm     88.3% 0.00 in 0 W/m2
20:44 35.2 °F 32 °F 29.83 in Calm     88% 0.00 in 0 W/m2
20:49 35.3 °F 32.1 °F 29.83 in Calm     88% 0.00 in 0 W/m2
20:54 35.4 °F 32.2 °F 29.82 in Calm     88% 0.00 in 0 W/m2
20:59 35.5 °F 32.3 °F 29.82 in Calm     87.9% 0.00 in 0 W/m2
21:04 35.5 °F 32 °F 29.83 in Calm     87% 0.00 in 0 W/m2
21:09 35.4 °F 31.9 °F 29.82 in Calm     87% 0.00 in 0 W/m2
21:14 35.2 °F 31.8 °F 29.82 in Calm     87.3% 0.00 in 0 W/m2
21:19 35.1 °F 31.4 °F 29.82 in Calm     86.2% 0.00 in 0 W/m2
21:24 35 °F 31.5 °F 29.81 in Calm     87% 0.00 in 0 W/m2
21:29 34.9 °F 31.4 °F 29.81 in Calm     87% 0.00 in 0 W/m2
21:34 34.8 °F 31.3 °F 29.81 in Calm     87% 0.00 in 0 W/m2
21:39 34.7 °F 31.2 °F 29.81 in Calm     87% 0.00 in 0 W/m2
21:44 34.6 °F 31.1 °F 29.81 in Calm     87% 0.00 in 0 W/m2
21:49 34.5 °F 31.2 °F 29.81 in Calm     87.6% 0.00 in 0 W/m2
21:54 34.4 °F 31.3 °F 29.81 in Calm     88% 0.00 in 0 W/m2
21:59 34.4 °F 31.2 °F 29.81 in Calm     88% 0.00 in 0 W/m2
22:04 34.4 °F 31.2 °F 29.81 in Calm     88% 0.00 in 0 W/m2
22:09 34.3 °F 31.1 °F 29.81 in Calm     88% 0.00 in 0 W/m2
22:14 34.3 °F 31.1 °F 29.80 in Calm     88% 0.00 in 0 W/m2
22:19 34.2 °F 31.1 °F 29.81 in Calm     88% 0.00 in 0 W/m2
22:24 34.2 °F 31 °F 29.81 in Calm     88% 0.00 in 0 W/m2
22:29 34.2 °F 31 °F 29.80 in Calm     88% 0.00 in 0 W/m2
22:34 34.1 °F 30.9 °F 29.80 in Calm     88% 0.00 in 0 W/m2
22:38 34.1 °F 31 °F 29.79 in Calm     88.5% 0.00 in 0 W/m2
23:04 33.7 °F 30.8 °F 29.79 in Calm     89% 0.00 in 0 W/m2
23:09 33.7 °F 30.8 °F 29.79 in Calm     89% 0.00 in 0 W/m2
23:14 33.6 °F 30.7 °F 29.80 in Calm     89% 0.00 in 0 W/m2
23:19 33.5 °F 30.6 °F 29.80 in Calm     89% 0.00 in 0 W/m2
23:24 33.5 °F 30.6 °F 29.79 in Calm     89% 0.00 in 0 W/m2
23:29 33.4 °F 30.8 °F 29.80 in Calm     89.9% 0.00 in 0 W/m2
23:34 33.4 °F 30.8 °F 29.80 in Calm     90% 0.00 in 0 W/m2
23:39 33.3 °F 30.7 °F 29.80 in Calm     90% 0.00 in 0 W/m2
23:44 33.3 °F 30.7 °F 29.79 in Calm     90% 0.00 in 0 W/m2
23:49 33.2 °F 30.6 °F 29.79 in Calm     90% 0.00 in 0 W/m2
23:54 33.2 °F 30.6 °F 29.79 in Calm     90% 0.00 in 0 W/m2
23:59 33.1 °F 30.5 °F 29.78 in Calm     90% 0.00 in 0 W/m2
Hartford County Weather
Compliments of Weather Underground - 4 mb